sensor_id;sensor_type;location;lat;lon;timestamp;P1;durP1;ratioP1;P2;durP2;ratioP2
52614;SDS011;38508;53.158;6.614;2023-04-01T00:00:18;13.77;;;9.63;;
52614;SDS011;38508;53.158;6.614;2023-04-01T00:02:44;13.52;;;9.77;;
52614;SDS011;38508;53.158;6.614;2023-04-01T00:05:10;11.85;;;9.23;;
52614;SDS011;38508;53.158;6.614;2023-04-01T00:07:37;12.18;;;9.35;;
52614;SDS011;38508;53.158;6.614;2023-04-01T00:10:04;11.25;;;9.40;;
52614;SDS011;38508;53.158;6.614;2023-04-01T00:12:31;15.45;;;10.25;;
52614;SDS011;38508;53.158;6.614;2023-04-01T00:14:57;11.00;;;9.27;;
52614;SDS011;38508;53.158;6.614;2023-04-01T00:17:23;12.95;;;10.15;;
52614;SDS011;38508;53.158;6.614;2023-04-01T00:19:48;12.63;;;9.75;;
52614;SDS011;38508;53.158;6.614;2023-04-01T00:22:14;13.10;;;9.57;;
52614;SDS011;38508;53.158;6.614;2023-04-01T00:24:40;15.52;;;10.82;;
52614;SDS011;38508;53.158;6.614;2023-04-01T00:27:06;14.95;;;11.43;;
52614;SDS011;38508;53.158;6.614;2023-04-01T00:29:33;12.07;;;10.57;;
52614;SDS011;38508;53.158;6.614;2023-04-01T00:31:59;10.73;;;9.63;;
52614;SDS011;38508;53.158;6.614;2023-04-01T00:34:25;13.73;;;11.25;;
52614;SDS011;38508;53.158;6.614;2023-04-01T00:36:51;17.17;;;12.05;;
52614;SDS011;38508;53.158;6.614;2023-04-01T00:39:18;12.68;;;10.88;;
52614;SDS011;38508;53.158;6.614;2023-04-01T00:41:44;16.25;;;12.30;;
52614;SDS011;38508;53.158;6.614;2023-04-01T00:44:17;19.58;;;13.10;;
52614;SDS011;38508;53.158;6.614;2023-04-01T00:46:48;18.92;;;12.77;;
52614;SDS011;38508;53.158;6.614;2023-04-01T00:49:15;12.30;;;11.00;;
52614;SDS011;38508;53.158;6.614;2023-04-01T00:51:43;12.23;;;10.95;;
52614;SDS011;38508;53.158;6.614;2023-04-01T00:54:11;16.15;;;11.90;;
52614;SDS011;38508;53.158;6.614;2023-04-01T00:56:51;14.02;;;12.02;;
52614;SDS011;38508;53.158;6.614;2023-04-01T00:59:22;15.15;;;11.23;;
52614;SDS011;38508;53.158;6.614;2023-04-01T01:01:59;16.27;;;12.60;;
52614;SDS011;38508;53.158;6.614;2023-04-01T01:04:28;15.45;;;12.70;;
52614;SDS011;38508;53.158;6.614;2023-04-01T01:09:45;12.55;;;11.25;;
52614;SDS011;38508;53.158;6.614;2023-04-01T01:32:53;19.38;;;15.30;;
52614;SDS011;38508;53.158;6.614;2023-04-01T01:37:52;24.25;;;16.40;;
52614;SDS011;38508;53.158;6.614;2023-04-01T01:40:21;20.77;;;15.45;;
52614;SDS011;38508;53.158;6.614;2023-04-01T01:42:51;19.85;;;16.13;;
52614;SDS011;38508;53.158;6.614;2023-04-01T01:45:21;20.77;;;15.73;;
52614;SDS011;38508;53.158;6.614;2023-04-01T01:47:51;23.02;;;15.95;;
52614;SDS011;38508;53.158;6.614;2023-04-01T01:50:17;16.10;;;14.48;;
52614;SDS011;38508;53.158;6.614;2023-04-01T01:52:44;18.40;;;15.27;;
52614;SDS011;38508;53.158;6.614;2023-04-01T01:55:23;24.88;;;17.10;;
52614;SDS011;38508;53.158;6.614;2023-04-01T01:57:53;15.88;;;14.18;;
52614;SDS011;38508;53.158;6.614;2023-04-01T02:00:23;26.05;;;16.27;;
52614;SDS011;38508;53.158;6.614;2023-04-01T02:02:49;26.08;;;16.95;;
52614;SDS011;38508;53.158;6.614;2023-04-01T02:05:20;21.48;;;16.65;;
52614;SDS011;38508;53.158;6.614;2023-04-01T02:07:49;23.65;;;17.27;;
52614;SDS011;38508;53.158;6.614;2023-04-01T02:10:22;24.83;;;16.30;;
52614;SDS011;38508;53.158;6.614;2023-04-01T02:12:51;23.80;;;17.27;;
52614;SDS011;38508;53.158;6.614;2023-04-01T02:15:22;21.33;;;15.70;;
52614;SDS011;38508;53.158;6.614;2023-04-01T02:17:51;16.67;;;14.95;;
52614;SDS011;38508;53.158;6.614;2023-04-01T02:20:20;21.00;;;15.13;;
52614;SDS011;38508;53.158;6.614;2023-04-01T02:22:49;23.02;;;17.02;;
52614;SDS011;38508;53.158;6.614;2023-04-01T02:25:22;22.70;;;16.75;;
52614;SDS011;38508;53.158;6.614;2023-04-01T02:27:51;24.75;;;16.08;;
52614;SDS011;38508;53.158;6.614;2023-04-01T02:30:19;20.23;;;15.15;;
52614;SDS011;38508;53.158;6.614;2023-04-01T02:32:46;22.20;;;16.75;;
52614;SDS011;38508;53.158;6.614;2023-04-01T02:35:13;16.55;;;14.88;;
52614;SDS011;38508;53.158;6.614;2023-04-01T02:37:42;23.65;;;16.42;;
52614;SDS011;38508;53.158;6.614;2023-04-01T02:40:11;19.77;;;15.15;;
52614;SDS011;38508;53.158;6.614;2023-04-01T02:42:37;18.30;;;14.20;;
52614;SDS011;38508;53.158;6.614;2023-04-01T02:45:03;20.83;;;15.13;;
52614;SDS011;38508;53.158;6.614;2023-04-01T02:47:30;19.00;;;14.57;;
52614;SDS011;38508;53.158;6.614;2023-04-01T02:49:56;18.50;;;14.85;;
52614;SDS011;38508;53.158;6.614;2023-04-01T02:52:27;22.80;;;17.42;;
52614;SDS011;38508;53.158;6.614;2023-04-01T02:54:54;23.88;;;17.77;;
52614;SDS011;38508;53.158;6.614;2023-04-01T02:57:21;21.95;;;17.27;;
52614;SDS011;38508;53.158;6.614;2023-04-01T02:59:47;26.45;;;18.00;;
52614;SDS011;38508;53.158;6.614;2023-04-01T03:02:13;20.48;;;16.23;;
52614;SDS011;38508;53.158;6.614;2023-04-01T03:04:38;25.58;;;18.20;;
52614;SDS011;38508;53.158;6.614;2023-04-01T03:07:04;26.35;;;18.65;;
52614;SDS011;38508;53.158;6.614;2023-04-01T03:09:30;32.15;;;20.85;;
52614;SDS011;38508;53.158;6.614;2023-04-01T03:11:56;35.22;;;19.95;;
52614;SDS011;38508;53.158;6.614;2023-04-01T03:14:22;33.47;;;20.08;;
52614;SDS011;38508;53.158;6.614;2023-04-01T03:16:48;28.55;;;18.55;;
52614;SDS011;38508;53.158;6.614;2023-04-01T03:19:13;37.25;;;19.60;;
52614;SDS011;38508;53.158;6.614;2023-04-01T03:21:39;26.02;;;17.98;;
52614;SDS011;38508;53.158;6.614;2023-04-01T03:24:05;25.65;;;18.75;;
52614;SDS011;38508;53.158;6.614;2023-04-01T03:26:31;31.95;;;19.27;;
52614;SDS011;38508;53.158;6.614;2023-04-01T03:28:57;32.92;;;20.40;;
52614;SDS011;38508;53.158;6.614;2023-04-01T03:31:23;28.60;;;19.55;;
52614;SDS011;38508;53.158;6.614;2023-04-01T03:33:49;25.70;;;18.08;;
52614;SDS011;38508;53.158;6.614;2023-04-01T03:36:15;35.08;;;20.90;;
52614;SDS011;38508;53.158;6.614;2023-04-01T03:38:41;30.63;;;19.55;;
52614;SDS011;38508;53.158;6.614;2023-04-01T03:41:07;25.48;;;18.20;;
52614;SDS011;38508;53.158;6.614;2023-04-01T03:43:36;25.27;;;18.20;;
52614;SDS011;38508;53.158;6.614;2023-04-01T03:46:02;29.13;;;19.00;;
52614;SDS011;38508;53.158;6.614;2023-04-01T03:48:28;30.08;;;19.30;;
52614;SDS011;38508;53.158;6.614;2023-04-01T03:50:53;27.00;;;19.48;;
52614;SDS011;38508;53.158;6.614;2023-04-01T03:53:19;29.60;;;19.02;;
52614;SDS011;38508;53.158;6.614;2023-04-01T03:55:45;36.50;;;20.23;;
52614;SDS011;38508;53.158;6.614;2023-04-01T03:58:11;36.00;;;20.25;;
52614;SDS011;38508;53.158;6.614;2023-04-01T04:00:37;29.13;;;19.00;;
52614;SDS011;38508;53.158;6.614;2023-04-01T04:03:03;27.05;;;19.65;;
52614;SDS011;38508;53.158;6.614;2023-04-01T04:05:29;29.17;;;20.08;;
52614;SDS011;38508;53.158;6.614;2023-04-01T04:07:56;24.52;;;18.75;;
52614;SDS011;38508;53.158;6.614;2023-04-01T04:10:21;27.70;;;18.65;;
52614;SDS011;38508;53.158;6.614;2023-04-01T04:12:48;32.40;;;21.05;;
52614;SDS011;38508;53.158;6.614;2023-04-01T04:15:15;31.13;;;20.20;;
52614;SDS011;38508;53.158;6.614;2023-04-01T04:17:40;39.17;;;21.23;;
52614;SDS011;38508;53.158;6.614;2023-04-01T04:20:06;30.20;;;20.73;;
52614;SDS011;38508;53.158;6.614;2023-04-01T04:22:33;23.75;;;19.70;;
52614;SDS011;38508;53.158;6.614;2023-04-01T04:24:59;29.70;;;21.70;;
52614;SDS011;38508;53.158;6.614;2023-04-01T04:27:25;40.80;;;23.33;;
52614;SDS011;38508;53.158;6.614;2023-04-01T04:29:50;40.33;;;24.15;;
52614;SDS011;38508;53.158;6.614;2023-04-01T04:32:16;48.45;;;25.20;;
52614;SDS011;38508;53.158;6.614;2023-04-01T04:34:42;39.92;;;24.60;;
52614;SDS011;38508;53.158;6.614;2023-04-01T04:37:07;30.90;;;22.75;;
52614;SDS011;38508;53.158;6.614;2023-04-01T04:39:33;29.20;;;23.58;;
52614;SDS011;38508;53.158;6.614;2023-04-01T04:41:59;35.58;;;24.67;;
52614;SDS011;38508;53.158;6.614;2023-04-01T04:44:24;33.95;;;25.17;;
52614;SDS011;38508;53.158;6.614;2023-04-01T04:46:50;33.75;;;24.27;;
52614;SDS011;38508;53.158;6.614;2023-04-01T04:49:16;42.10;;;26.58;;
52614;SDS011;38508;53.158;6.614;2023-04-01T04:51:47;42.63;;;26.05;;
52614;SDS011;38508;53.158;6.614;2023-04-01T04:54:13;42.00;;;27.80;;
52614;SDS011;38508;53.158;6.614;2023-04-01T04:56:38;40.90;;;27.90;;
52614;SDS011;38508;53.158;6.614;2023-04-01T04:59:04;42.97;;;27.60;;
52614;SDS011;38508;53.158;6.614;2023-04-01T05:01:31;46.97;;;29.25;;
52614;SDS011;38508;53.158;6.614;2023-04-01T05:03:58;46.63;;;29.67;;
52614;SDS011;38508;53.158;6.614;2023-04-01T05:06:24;36.58;;;27.00;;
52614;SDS011;38508;53.158;6.614;2023-04-01T05:08:50;51.45;;;28.83;;
52614;SDS011;38508;53.158;6.614;2023-04-01T05:11:17;38.75;;;26.67;;
52614;SDS011;38508;53.158;6.614;2023-04-01T05:13:44;41.60;;;27.05;;
52614;SDS011;38508;53.158;6.614;2023-04-01T05:16:11;38.38;;;24.80;;
52614;SDS011;38508;53.158;6.614;2023-04-01T05:18:39;42.67;;;25.15;;
52614;SDS011;38508;53.158;6.614;2023-04-01T05:21:06;41.65;;;24.90;;
52614;SDS011;38508;53.158;6.614;2023-04-01T05:23:33;27.88;;;22.90;;
52614;SDS011;38508;53.158;6.614;2023-04-01T05:26:02;26.20;;;21.98;;
52614;SDS011;38508;53.158;6.614;2023-04-01T05:28:32;30.70;;;22.75;;
52614;SDS011;38508;53.158;6.614;2023-04-01T05:30:58;30.38;;;23.67;;
52614;SDS011;38508;53.158;6.614;2023-04-01T05:33:25;40.20;;;24.58;;
52614;SDS011;38508;53.158;6.614;2023-04-01T05:35:52;28.13;;;22.02;;
52614;SDS011;38508;53.158;6.614;2023-04-01T05:38:18;44.75;;;24.40;;
52614;SDS011;38508;53.158;6.614;2023-04-01T05:40:44;41.53;;;24.38;;
52614;SDS011;38508;53.158;6.614;2023-04-01T05:43:10;44.08;;;23.75;;
52614;SDS011;38508;53.158;6.614;2023-04-01T05:45:36;36.08;;;23.40;;
52614;SDS011;38508;53.158;6.614;2023-04-01T05:48:02;26.58;;;22.17;;
52614;SDS011;38508;53.158;6.614;2023-04-01T05:50:28;40.10;;;23.40;;
52614;SDS011;38508;53.158;6.614;2023-04-01T05:52:54;26.08;;;21.88;;
52614;SDS011;38508;53.158;6.614;2023-04-01T05:55:20;31.30;;;23.38;;
52614;SDS011;38508;53.158;6.614;2023-04-01T05:57:46;41.80;;;24.15;;
52614;SDS011;38508;53.158;6.614;2023-04-01T06:00:14;34.90;;;24.17;;
52614;SDS011;38508;53.158;6.614;2023-04-01T06:02:41;31.83;;;22.92;;
52614;SDS011;38508;53.158;6.614;2023-04-01T06:05:12;43.83;;;24.58;;
52614;SDS011;38508;53.158;6.614;2023-04-01T06:07:41;31.95;;;22.15;;
52614;SDS011;38508;53.158;6.614;2023-04-01T06:10:17;29.38;;;21.90;;
52614;SDS011;38508;53.158;6.614;2023-04-01T06:12:50;26.77;;;21.83;;
52614;SDS011;38508;53.158;6.614;2023-04-01T06:15:25;33.22;;;23.77;;
52614;SDS011;38508;53.158;6.614;2023-04-01T06:26:12;41.03;;;25.70;;
52614;SDS011;38508;53.158;6.614;2023-04-01T06:39:34;43.13;;;28.50;;
52614;SDS011;38508;53.158;6.614;2023-04-01T06:54:26;44.35;;;30.13;;
52614;SDS011;38508;53.158;6.614;2023-04-01T06:57:05;48.92;;;30.58;;
52614;SDS011;38508;53.158;6.614;2023-04-01T06:59:48;50.00;;;29.85;;
52614;SDS011;38508;53.158;6.614;2023-04-01T07:04:57;47.75;;;29.33;;
52614;SDS011;38508;53.158;6.614;2023-04-01T07:07:41;53.25;;;30.45;;
52614;SDS011;38508;53.158;6.614;2023-04-01T07:10:15;51.90;;;29.48;;
52614;SDS011;38508;53.158;6.614;2023-04-01T07:12:50;49.72;;;28.95;;
52614;SDS011;38508;53.158;6.614;2023-04-01T07:15:28;51.88;;;29.50;;
52614;SDS011;38508;53.158;6.614;2023-04-01T07:18:02;50.97;;;31.55;;
52614;SDS011;38508;53.158;6.614;2023-04-01T07:20:31;58.17;;;30.60;;
52614;SDS011;38508;53.158;6.614;2023-04-01T07:22:59;41.28;;;27.45;;
52614;SDS011;38508;53.158;6.614;2023-04-01T07:25:28;45.20;;;29.70;;
52614;SDS011;38508;53.158;6.614;2023-04-01T07:28:01;41.10;;;28.20;;
52614;SDS011;38508;53.158;6.614;2023-04-01T07:36:02;41.28;;;27.70;;
52614;SDS011;38508;53.158;6.614;2023-04-01T07:38:48;48.35;;;29.05;;
52614;SDS011;38508;53.158;6.614;2023-04-01T07:41:34;56.10;;;31.13;;
52614;SDS011;38508;53.158;6.614;2023-04-01T07:44:25;44.72;;;29.45;;
52614;SDS011;38508;53.158;6.614;2023-04-01T07:47:09;48.85;;;30.63;;
52614;SDS011;38508;53.158;6.614;2023-04-01T07:52:22;38.35;;;26.60;;
52614;SDS011;38508;53.158;6.614;2023-04-01T07:57:56;53.05;;;28.35;;
52614;SDS011;38508;53.158;6.614;2023-04-01T08:06:37;40.60;;;27.30;;
52614;SDS011;38508;53.158;6.614;2023-04-01T08:09:21;43.38;;;27.48;;
52614;SDS011;38508;53.158;6.614;2023-04-01T08:11:51;39.33;;;26.10;;
52614;SDS011;38508;53.158;6.614;2023-04-01T08:17:18;35.80;;;24.33;;
52614;SDS011;38508;53.158;6.614;2023-04-01T08:20:01;39.85;;;25.90;;
52614;SDS011;38508;53.158;6.614;2023-04-01T08:22:43;41.45;;;25.65;;
52614;SDS011;38508;53.158;6.614;2023-04-01T08:25:20;36.38;;;24.20;;
52614;SDS011;38508;53.158;6.614;2023-04-01T08:27:51;34.35;;;23.55;;
52614;SDS011;38508;53.158;6.614;2023-04-01T08:30:26;34.47;;;22.65;;
52614;SDS011;38508;53.158;6.614;2023-04-01T08:33:03;34.05;;;22.33;;
52614;SDS011;38508;53.158;6.614;2023-04-01T08:35:39;33.20;;;21.67;;
52614;SDS011;38508;53.158;6.614;2023-04-01T08:38:30;32.03;;;21.75;;
52614;SDS011;38508;53.158;6.614;2023-04-01T08:40:58;29.85;;;20.83;;
52614;SDS011;38508;53.158;6.614;2023-04-01T08:49:51;27.40;;;19.88;;
52614;SDS011;38508;53.158;6.614;2023-04-01T09:15:13;18.38;;;14.80;;
52614;SDS011;38508;53.158;6.614;2023-04-01T09:41:39;8.82;;;7.80;;
52614;SDS011;38508;53.158;6.614;2023-04-01T09:50:31;8.20;;;7.38;;
52614;SDS011;38508;53.158;6.614;2023-04-01T09:53:04;9.43;;;8.52;;
52614;SDS011;38508;53.158;6.614;2023-04-01T09:56:01;8.98;;;8.13;;
52614;SDS011;38508;53.158;6.614;2023-04-01T10:15:45;8.85;;;8.02;;
52614;SDS011;38508;53.158;6.614;2023-04-01T10:47:08;7.57;;;6.88;;
52614;SDS011;38508;53.158;6.614;2023-04-01T10:55:34;8.45;;;7.75;;
52614;SDS011;38508;53.158;6.614;2023-04-01T11:24:31;8.85;;;6.78;;
52614;SDS011;38508;53.158;6.614;2023-04-01T11:32:39;8.65;;;6.47;;
52614;SDS011;38508;53.158;6.614;2023-04-01T11:35:23;7.53;;;5.35;;
52614;SDS011;38508;53.158;6.614;2023-04-01T11:52:11;5.10;;;4.20;;
52614;SDS011;38508;53.158;6.614;2023-04-01T12:03:14;4.57;;;3.78;;
52614;SDS011;38508;53.158;6.614;2023-04-01T12:05:54;4.28;;;3.83;;
52614;SDS011;38508;53.158;6.614;2023-04-01T12:19:01;4.55;;;4.15;;
52614;SDS011;38508;53.158;6.614;2023-04-01T12:24:06;6.30;;;5.72;;
52614;SDS011;38508;53.158;6.614;2023-04-01T12:27:05;5.10;;;4.60;;
52614;SDS011;38508;53.158;6.614;2023-04-01T12:29:48;4.65;;;4.18;;
52614;SDS011;38508;53.158;6.614;2023-04-01T12:35:21;5.35;;;4.85;;
52614;SDS011;38508;53.158;6.614;2023-04-01T13:28:47;5.25;;;4.78;;
52614;SDS011;38508;53.158;6.614;2023-04-01T13:34:02;5.30;;;4.80;;
52614;SDS011;38508;53.158;6.614;2023-04-01T13:36:56;4.22;;;3.88;;
52614;SDS011;38508;53.158;6.614;2023-04-01T13:39:45;4.05;;;3.65;;
52614;SDS011;38508;53.158;6.614;2023-04-01T13:42:21;7.32;;;4.10;;
52614;SDS011;38508;53.158;6.614;2023-04-01T14:01:08;3.72;;;3.42;;
52614;SDS011;38508;53.158;6.614;2023-04-01T14:14:53;3.17;;;2.80;;
52614;SDS011;38508;53.158;6.614;2023-04-01T14:17:32;3.25;;;2.80;;
52614;SDS011;38508;53.158;6.614;2023-04-01T14:28:39;3.22;;;2.75;;
52614;SDS011;38508;53.158;6.614;2023-04-01T14:31:15;3.60;;;2.90;;
52614;SDS011;38508;53.158;6.614;2023-04-01T14:39:49;3.42;;;2.75;;
52614;SDS011;38508;53.158;6.614;2023-04-01T14:47:56;3.15;;;2.58;;
52614;SDS011;38508;53.158;6.614;2023-04-01T14:50:41;2.60;;;2.40;;
52614;SDS011;38508;53.158;6.614;2023-04-01T14:55:50;3.08;;;2.70;;
52614;SDS011;38508;53.158;6.614;2023-04-01T14:58:21;2.70;;;2.50;;
52614;SDS011;38508;53.158;6.614;2023-04-01T15:09:21;2.97;;;2.55;;
52614;SDS011;38508;53.158;6.614;2023-04-01T15:12:02;5.85;;;2.90;;
52614;SDS011;38508;53.158;6.614;2023-04-01T15:15:24;3.00;;;2.47;;
52614;SDS011;38508;53.158;6.614;2023-04-01T15:36:56;3.88;;;3.00;;
52614;SDS011;38508;53.158;6.614;2023-04-01T15:47:42;7.38;;;3.22;;
52614;SDS011;38508;53.158;6.614;2023-04-01T16:18:18;7.88;;;4.07;;
52614;SDS011;38508;53.158;6.614;2023-04-01T16:26:50;8.07;;;4.55;;
52614;SDS011;38508;53.158;6.614;2023-04-01T16:29:30;7.53;;;4.18;;
52614;SDS011;38508;53.158;6.614;2023-04-01T16:37:54;9.15;;;5.03;;
52614;SDS011;38508;53.158;6.614;2023-04-01T16:40:37;13.23;;;5.68;;
52614;SDS011;38508;53.158;6.614;2023-04-01T16:45:40;9.48;;;5.22;;
52614;SDS011;38508;53.158;6.614;2023-04-01T16:48:19;8.93;;;5.43;;
52614;SDS011;38508;53.158;6.614;2023-04-01T16:50:58;9.43;;;5.15;;
52614;SDS011;38508;53.158;6.614;2023-04-01T16:56:13;9.95;;;5.40;;
52614;SDS011;38508;53.158;6.614;2023-04-01T16:59:01;10.43;;;5.15;;
52614;SDS011;38508;53.158;6.614;2023-04-01T17:01:36;12.88;;;5.10;;
52614;SDS011;38508;53.158;6.614;2023-04-01T17:04:31;9.07;;;5.03;;
52614;SDS011;38508;53.158;6.614;2023-04-01T17:19:01;9.43;;;5.70;;
52614;SDS011;38508;53.158;6.614;2023-04-01T17:21:45;8.73;;;5.45;;
52614;SDS011;38508;53.158;6.614;2023-04-01T17:29:55;6.85;;;4.53;;
52614;SDS011;38508;53.158;6.614;2023-04-01T17:35:15;9.73;;;5.75;;
52614;SDS011;38508;53.158;6.614;2023-04-01T17:40:44;13.18;;;5.72;;
52614;SDS011;38508;53.158;6.614;2023-04-01T17:43:28;13.90;;;5.35;;
52614;SDS011;38508;53.158;6.614;2023-04-01T17:57:50;8.15;;;4.53;;
52614;SDS011;38508;53.158;6.614;2023-04-01T18:06:13;8.27;;;4.18;;
52614;SDS011;38508;53.158;6.614;2023-04-01T18:08:49;7.40;;;4.40;;
52614;SDS011;38508;53.158;6.614;2023-04-01T18:11:24;7.53;;;4.47;;
52614;SDS011;38508;53.158;6.614;2023-04-01T18:13:58;11.82;;;5.05;;
52614;SDS011;38508;53.158;6.614;2023-04-01T18:22:17;7.93;;;5.10;;
52614;SDS011;38508;53.158;6.614;2023-04-01T18:24:59;7.85;;;4.65;;
52614;SDS011;38508;53.158;6.614;2023-04-01T18:27:39;12.00;;;5.18;;
52614;SDS011;38508;53.158;6.614;2023-04-01T18:30:17;11.85;;;5.40;;
52614;SDS011;38508;53.158;6.614;2023-04-01T18:33:00;14.07;;;5.60;;
52614;SDS011;38508;53.158;6.614;2023-04-01T18:35:45;12.23;;;5.57;;
52614;SDS011;38508;53.158;6.614;2023-04-01T18:38:25;11.73;;;6.00;;
52614;SDS011;38508;53.158;6.614;2023-04-01T18:41:07;11.77;;;5.65;;
52614;SDS011;38508;53.158;6.614;2023-04-01T18:43:48;13.48;;;5.22;;
52614;SDS011;38508;53.158;6.614;2023-04-01T18:46:38;11.10;;;5.78;;
52614;SDS011;38508;53.158;6.614;2023-04-01T18:52:17;14.63;;;6.78;;
52614;SDS011;38508;53.158;6.614;2023-04-01T18:57:38;15.68;;;6.10;;
52614;SDS011;38508;53.158;6.614;2023-04-01T19:00:14;16.13;;;6.80;;
52614;SDS011;38508;53.158;6.614;2023-04-01T19:05:20;14.45;;;6.20;;
52614;SDS011;38508;53.158;6.614;2023-04-01T19:07:56;15.80;;;6.18;;
52614;SDS011;38508;53.158;6.614;2023-04-01T19:27:29;15.18;;;6.68;;
52614;SDS011;38508;53.158;6.614;2023-04-01T19:30:02;13.05;;;6.68;;
52614;SDS011;38508;53.158;6.614;2023-04-01T19:35:44;13.40;;;7.13;;
52614;SDS011;38508;53.158;6.614;2023-04-01T19:38:39;15.45;;;7.28;;
52614;SDS011;38508;53.158;6.614;2023-04-01T19:43:50;23.35;;;7.00;;
52614;SDS011;38508;53.158;6.614;2023-04-01T19:46:46;12.20;;;5.93;;
52614;SDS011;38508;53.158;6.614;2023-04-01T19:49:22;17.08;;;6.43;;
52614;SDS011;38508;53.158;6.614;2023-04-01T19:52:20;16.70;;;6.68;;
52614;SDS011;38508;53.158;6.614;2023-04-01T19:55:11;12.70;;;6.40;;
52614;SDS011;38508;53.158;6.614;2023-04-01T20:00:58;20.30;;;6.88;;
52614;SDS011;38508;53.158;6.614;2023-04-01T20:06:20;19.60;;;6.38;;
52614;SDS011;38508;53.158;6.614;2023-04-01T20:12:02;13.02;;;6.07;;
52614;SDS011;38508;53.158;6.614;2023-04-01T20:14:50;11.48;;;6.20;;
52614;SDS011;38508;53.158;6.614;2023-04-01T20:18:00;15.20;;;5.60;;
52614;SDS011;38508;53.158;6.614;2023-04-01T20:25:23;11.77;;;5.60;;
52614;SDS011;38508;53.158;6.614;2023-04-01T20:28:00;13.73;;;5.45;;
52614;SDS011;38508;53.158;6.614;2023-04-01T20:33:17;15.35;;;5.70;;
52614;SDS011;38508;53.158;6.614;2023-04-01T20:36:16;13.40;;;5.45;;
52614;SDS011;38508;53.158;6.614;2023-04-01T20:44:48;14.30;;;5.07;;
52614;SDS011;38508;53.158;6.614;2023-04-01T20:50:21;8.45;;;4.10;;
52614;SDS011;38508;53.158;6.614;2023-04-01T20:55:29;9.93;;;4.60;;
52614;SDS011;38508;53.158;6.614;2023-04-01T20:58:09;9.57;;;5.10;;
52614;SDS011;38508;53.158;6.614;2023-04-01T21:03:45;13.23;;;4.35;;
52614;SDS011;38508;53.158;6.614;2023-04-01T21:17:08;14.25;;;4.70;;
52614;SDS011;38508;53.158;6.614;2023-04-01T21:25:09;8.05;;;3.78;;
52614;SDS011;38508;53.158;6.614;2023-04-01T21:27:52;13.63;;;4.50;;
52614;SDS011;38508;53.158;6.614;2023-04-01T21:41:49;11.85;;;4.65;;
52614;SDS011;38508;53.158;6.614;2023-04-01T21:44:55;12.13;;;4.60;;
52614;SDS011;38508;53.158;6.614;2023-04-01T21:52:59;12.32;;;4.05;;
52614;SDS011;38508;53.158;6.614;2023-04-01T21:55:57;11.55;;;4.93;;
52614;SDS011;38508;53.158;6.614;2023-04-01T22:07:20;14.45;;;4.40;;
52614;SDS011;38508;53.158;6.614;2023-04-01T22:09:57;11.07;;;4.07;;
52614;SDS011;38508;53.158;6.614;2023-04-01T22:18:31;8.90;;;4.53;;
52614;SDS011;38508;53.158;6.614;2023-04-01T22:20:57;11.77;;;4.43;;
52614;SDS011;38508;53.158;6.614;2023-04-01T22:23:36;9.80;;;4.03;;
52614;SDS011;38508;53.158;6.614;2023-04-01T22:26:21;9.38;;;3.80;;
52614;SDS011;38508;53.158;6.614;2023-04-01T22:29:10;11.88;;;4.03;;
52614;SDS011;38508;53.158;6.614;2023-04-01T22:32:36;13.23;;;3.88;;
52614;SDS011;38508;53.158;6.614;2023-04-01T22:34:43;8.57;;;3.42;;
52614;SDS011;38508;53.158;6.614;2023-04-01T22:37:23;11.77;;;3.72;;
52614;SDS011;38508;53.158;6.614;2023-04-01T22:40:08;9.95;;;3.35;;
52614;SDS011;38508;53.158;6.614;2023-04-01T22:42:51;10.32;;;3.47;;
52614;SDS011;38508;53.158;6.614;2023-04-01T22:45:27;7.20;;;3.20;;
52614;SDS011;38508;53.158;6.614;2023-04-01T22:48:10;9.38;;;3.55;;
52614;SDS011;38508;53.158;6.614;2023-04-01T22:54:02;9.57;;;3.35;;
52614;SDS011;38508;53.158;6.614;2023-04-01T22:57:04;9.50;;;3.72;;
52614;SDS011;38508;53.158;6.614;2023-04-01T22:59:32;9.18;;;3.85;;
52614;SDS011;38508;53.158;6.614;2023-04-01T23:02:21;9.50;;;4.63;;
52614;SDS011;38508;53.158;6.614;2023-04-01T23:04:58;8.23;;;3.65;;
52614;SDS011;38508;53.158;6.614;2023-04-01T23:10:02;11.33;;;3.57;;
52614;SDS011;38508;53.158;6.614;2023-04-01T23:12:37;8.70;;;3.63;;
52614;SDS011;38508;53.158;6.614;2023-04-01T23:15:05;12.25;;;4.40;;
52614;SDS011;38508;53.158;6.614;2023-04-01T23:20:10;13.32;;;4.47;;
52614;SDS011;38508;53.158;6.614;2023-04-01T23:25:18;16.58;;;4.22;;
52614;SDS011;38508;53.158;6.614;2023-04-01T23:35:57;6.53;;;3.70;;
52614;SDS011;38508;53.158;6.614;2023-04-01T23:38:39;9.95;;;3.78;;
52614;SDS011;38508;53.158;6.614;2023-04-01T23:41:06;12.40;;;3.38;;
52614;SDS011;38508;53.158;6.614;2023-04-01T23:43:41;10.35;;;3.40;;
52614;SDS011;38508;53.158;6.614;2023-04-01T23:46:09;9.25;;;3.65;;
52614;SDS011;38508;53.158;6.614;2023-04-01T23:48:42;6.50;;;2.90;;
52614;SDS011;38508;53.158;6.614;2023-04-01T23:51:12;8.70;;;3.05;;
52614;SDS011;38508;53.158;6.614;2023-04-01T23:53:45;9.75;;;3.42;;
52614;SDS011;38508;53.158;6.614;2023-04-01T23:56:12;7.50;;;2.70;;
52614;SDS011;38508;53.158;6.614;2023-04-01T23:58:43;7.57;;;3.30;;
